Time;durP1;ratioP1;P1;durP2;ratioP2;P2;SDS_P1;SDS_P2;PMS_P1;PMS_P2;Temp;Humidity;BMP_temperature;BMP_pressure;BME280_temperature;BME280_humidity;BME280_pressure;Samples;Min_cycle;Max_cycle;Signal;HPM_P1;HPM_P2
2023/03/20 01:04:12;;;;;;;63.80;41.87;;;3.00;99.90;;;;;;5652242;24;21063;-85
2023/03/20 01:24:52;;;;;;;63.13;39.73;;;2.70;99.90;;;;;;5671601;24;20197;-82
2023/03/20 02:30:56;;;;;;;64.90;39.90;;;2.60;99.90;;;;;;5685109;24;20209;-81
2023/03/20 03:21:52;;;;;;;58.70;38.37;;;2.40;99.90;;;;;;4854513;28;20362;-81
2023/03/20 03:41:53;;;;;;;64.27;40.40;;;2.10;99.90;;;;;;4691340;29;21096;-83
2023/03/20 04:07:33;;;;;;;61.47;38.47;;;1.80;99.90;;;;;;4683769;29;20256;-82
2023/03/20 04:32:47;;;;;;;60.53;37.57;;;2.10;99.90;;;;;;4737479;29;20208;-81
2023/03/20 04:58:03;;;;;;;68.07;41.47;;;2.00;99.90;;;;;;4808806;28;20275;-83
2023/03/20 05:33:05;;;;;;;69.93;41.47;;;2.40;99.90;;;;;;4774033;29;20658;-82
2023/03/20 05:53:36;;;;;;;67.43;44.33;;;3.20;99.90;;;;;;4803369;28;21257;-83
2023/03/20 06:14:16;;;;;;;64.40;39.57;;;4.70;99.90;;;;;;4634105;30;20222;-82
2023/03/20 06:44:06;;;;;;;50.93;34.20;;;6.80;98.70;;;;;;4740587;29;20485;-83
2023/03/20 07:15:10;;;;;;;46.23;31.63;;;9.50;80.30;;;;;;4824879;28;20755;-82
2023/03/20 07:45:29;;;;;;;50.07;33.50;;;11.40;75.40;;;;;;4767752;28;20222;-81
2023/03/20 08:16:12;;;;;;;39.83;27.73;;;12.40;71.10;;;;;;4699473;29;20196;-82
2023/03/20 08:20:31;;;;;;;43.73;28.60;;;12.40;70.40;;;;;;4618480;29;21296;-81
2023/03/20 08:51:33;;;;;;;35.90;22.83;;;13.10;64.50;;;;;;4803049;29;20350;-82
2023/03/20 09:11:27;;;;;;;26.80;18.83;;;13.40;63.10;;;;;;4690602;29;20362;-81
2023/03/20 09:32:03;;;;;;;25.93;16.10;;;13.80;61.50;;;;;;4634832;29;20226;-81
2023/03/20 09:52:35;;;;;;;26.57;18.03;;;14.90;56.60;;;;;;4617085;30;20356;-84
2023/03/20 09:56:55;;;;;;;26.93;17.57;;;15.40;56.20;;;;;;4545465;30;20820;-82
2023/03/20 10:22:24;;;;;;;24.93;17.57;;;15.60;53.20;;;;;;4541946;30;20766;-82
2023/03/20 10:53:18;;;;;;;34.83;19.53;;;15.40;52.70;;;;;;4606620;29;20300;-79
2023/03/20 11:13:43;;;;;;;35.60;23.20;;;15.30;55.30;;;;;;4601843;29;20275;-82
2023/03/20 11:38:31;;;;;;;36.23;24.20;;;15.40;60.30;;;;;;4491238;30;20773;-82
2023/03/20 12:14:42;;;;;;;33.93;23.10;;;15.70;59.70;;;;;;4805538;28;20432;-82
2023/03/20 12:19:00;;;;;;;32.93;23.13;;;16.10;59.10;;;;;;4779902;28;20251;-82
2023/03/20 12:39:49;;;;;;;34.47;23.27;;;16.10;59.30;;;;;;4682613;29;20220;-82
2023/03/20 13:04:58;;;;;;;36.73;24.67;;;15.20;60.10;;;;;;4660766;29;21114;-79
2023/03/20 13:35:22;;;;;;;29.53;22.17;;;15.60;67.60;;;;;;4701281;29;20573;-84
2023/03/20 14:31:24;;;;;;;35.43;26.63;;;14.20;89.00;;;;;;4751821;29;20828;-82
2023/03/20 15:27:15;;;;;;;23.37;18.47;;;13.20;97.70;;;;;;4654783;29;20305;-82
2023/03/20 15:57:52;;;;;;;16.10;14.03;;;12.40;98.60;;;;;;4785631;29;21190;-82
2023/03/20 16:23:03;;;;;;;16.70;12.27;;;11.80;99.90;;;;;;4778459;29;20356;-82
2023/03/20 17:34:03;;;;;;;22.47;17.40;;;10.30;99.90;;;;;;4880834;28;20203;-84
2023/03/20 18:14:46;;;;;;;33.43;26.83;;;9.80;99.90;;;;;;4852415;28;20272;-83
2023/03/20 18:49:44;;;;;;;37.47;30.10;;;10.10;99.90;;;;;;4736238;29;20752;-80
2023/03/20 19:50:45;;;;;;;39.17;30.10;;;9.70;99.90;;;;;;4664913;29;20562;-80
2023/03/20 20:16:33;;;;;;;55.23;40.10;;;9.50;99.90;;;;;;4836886;28;20265;-81
2023/03/20 20:36:53;;;;;;;53.80;40.27;;;9.90;99.90;;;;;;4841448;28;20203;-81
2023/03/20 20:57:10;;;;;;;48.10;36.50;;;10.00;99.90;;;;;;4636060;29;20224;-84
2023/03/20 21:27:20;;;;;;;39.60;28.47;;;9.40;99.90;;;;;;4606764;29;20648;-83
2023/03/20 22:03:04;;;;;;;34.37;23.87;;;9.00;99.90;;;;;;4746895;29;20705;-82
2023/03/20 22:07:27;;;;;;;38.23;25.40;;;8.90;99.90;;;;;;4679469;29;20484;-80
2023/03/20 22:33:28;;;;;;;37.57;23.87;;;9.00;99.90;;;;;;4858591;28;20249;-80
2023/03/20 22:37:52;;;;;;;37.37;24.63;;;8.90;99.90;;;;;;4809657;28;20622;-80
2023/03/20 23:08:57;;;;;;;44.20;27.23;;;8.70;99.90;;;;;;4897739;28;20289;-84
2023/03/20 23:34:18;;;;;;;42.70;25.23;;;8.30;99.90;;;;;;4766059;29;20231;-82
